EJA420 KOWB-KMEM
Flight info
| Callsign | EJA420 |
|---|---|
| Flight time | 0h 39m |
| Altitude | 34000 |
| Route | SPKER BLUZZ5 |
| Aircraft | CL60/M-SADE3FGHIJ3J4J7P2RWXY/HB1D1 |
Departure
| Time | 2026-05-04 08:31 |
|---|---|
| Airport | Owensboro Daviess County Airport (KOWB) |
Arrival
| Time | 2026-05-04 09:11 |
|---|---|
| Airport | Memphis International Airport (KMEM) |
| Time | Latitude | Longitude | Altitude | Speed | Heading |
|---|---|---|---|---|---|
| 2026-05-04 08:02 | 37.74613 | -87.16379 | 408 ft | 0 kts | 134° |
| 2026-05-04 08:27 | 37.74842 | -87.16525 | 410 ft | 6 kts | 353° |
| 2026-05-04 08:28 | 37.74858 | -87.16529 | 410 ft | 0 kts | 347° |
| 2026-05-04 08:28 | 37.74860 | -87.16530 | 410 ft | 3 kts | 341° |
| 2026-05-04 08:28 | 37.74884 | -87.16605 | 410 ft | 12 kts | 268° |
| 2026-05-04 08:28 | 37.74878 | -87.16731 | 410 ft | 14 kts | 253° |
| 2026-05-04 08:29 | 37.74813 | -87.16773 | 410 ft | 11 kts | 180° |
| 2026-05-04 08:29 | 37.74680 | -87.16766 | 409 ft | 45 kts | 178° |
| 2026-05-04 08:29 | 37.74008 | -87.16733 | 407 ft | 145 kts | 178° |
| 2026-05-04 08:31 | 37.64787 | -87.21442 | 7965 ft | 258 kts | 224° |
| 2026-05-04 08:33 | 37.54316 | -87.31850 | 16596 ft | 292 kts | 225° |
| 2026-05-04 08:33 | 37.52694 | -87.33472 | 17400 ft | 307 kts | 225° |
| 2026-05-04 08:35 | 37.39502 | -87.46579 | 22965 ft | 366 kts | 225° |
| 2026-05-04 08:35 | 37.37483 | -87.48579 | 23764 ft | 372 kts | 225° |
| 2026-05-04 08:35 | 37.35445 | -87.50595 | 24613 ft | 375 kts | 225° |
| 2026-05-04 08:35 | 37.33348 | -87.52669 | 25452 ft | 378 kts | 225° |
| 2026-05-04 08:37 | 37.20602 | -87.65248 | 29489 ft | 398 kts | 224° |
| 2026-05-04 08:37 | 37.18399 | -87.67417 | 30054 ft | 402 kts | 224° |
| 2026-05-04 08:37 | 37.16164 | -87.69616 | 30612 ft | 405 kts | 225° |
| 2026-05-04 08:38 | 37.13898 | -87.71845 | 31126 ft | 407 kts | 225° |
| 2026-05-04 08:38 | 37.11659 | -87.74043 | 31613 ft | 409 kts | 225° |
| 2026-05-04 08:38 | 37.09396 | -87.76265 | 32085 ft | 411 kts | 225° |
| 2026-05-04 08:40 | 36.93145 | -87.92176 | 33927 ft | 439 kts | 225° |
| 2026-05-04 08:40 | 36.90693 | -87.94570 | 33933 ft | 446 kts | 225° |
| 2026-05-04 08:41 | 36.85725 | -87.99412 | 33934 ft | 456 kts | 224° |
| 2026-05-04 08:41 | 36.80643 | -88.04354 | 33935 ft | 463 kts | 224° |
| 2026-05-04 08:42 | 36.75516 | -88.09328 | 33940 ft | 464 kts | 224° |
| 2026-05-04 08:42 | 36.70392 | -88.14292 | 33947 ft | 465 kts | 224° |
| 2026-05-04 08:43 | 36.65266 | -88.19250 | 33950 ft | 465 kts | 224° |
| 2026-05-04 08:43 | 36.60149 | -88.24190 | 33964 ft | 464 kts | 224° |
| 2026-05-04 08:44 | 36.54993 | -88.29161 | 33959 ft | 464 kts | 224° |
| 2026-05-04 08:46 | 36.34708 | -88.48629 | 31418 ft | 441 kts | 224° |
| 2026-05-04 08:46 | 36.32293 | -88.50938 | 30820 ft | 436 kts | 224° |
| 2026-05-04 08:46 | 36.29910 | -88.53215 | 30259 ft | 432 kts | 224° |
| 2026-05-04 08:46 | 36.27505 | -88.55512 | 29692 ft | 429 kts | 224° |
| 2026-05-04 08:47 | 36.25150 | -88.57760 | 29107 ft | 427 kts | 224° |
| 2026-05-04 08:47 | 36.22789 | -88.60010 | 28542 ft | 422 kts | 224° |
| 2026-05-04 08:47 | 36.20463 | -88.62227 | 27982 ft | 419 kts | 224° |
| 2026-05-04 08:47 | 36.18167 | -88.64414 | 27438 ft | 416 kts | 224° |
| 2026-05-04 08:48 | 36.15880 | -88.66590 | 26879 ft | 413 kts | 223° |
| 2026-05-04 08:48 | 36.13598 | -88.68760 | 26333 ft | 410 kts | 223° |
| 2026-05-04 08:48 | 36.11350 | -88.70895 | 25791 ft | 407 kts | 223° |
| 2026-05-04 08:48 | 36.09098 | -88.73032 | 25239 ft | 403 kts | 224° |
| 2026-05-04 08:49 | 36.06887 | -88.75128 | 24714 ft | 396 kts | 224° |
| 2026-05-04 08:50 | 35.93881 | -88.87440 | 21596 ft | 385 kts | 223° |
| 2026-05-04 08:50 | 35.91738 | -88.89462 | 21067 ft | 383 kts | 223° |
| 2026-05-04 08:51 | 35.89636 | -88.91444 | 20578 ft | 380 kts | 223° |
| 2026-05-04 08:51 | 35.87529 | -88.93432 | 20070 ft | 378 kts | 223° |
| 2026-05-04 08:51 | 35.85456 | -88.95384 | 19574 ft | 375 kts | 222° |
| 2026-05-04 08:51 | 35.83397 | -88.97323 | 19074 ft | 373 kts | 222° |
| 2026-05-04 08:52 | 35.81317 | -88.99280 | 18575 ft | 370 kts | 222° |
| 2026-05-04 08:52 | 35.79249 | -89.01224 | 18094 ft | 368 kts | 222° |
| 2026-05-04 08:52 | 35.77231 | -89.03121 | 17605 ft | 366 kts | 221° |
| 2026-05-04 08:52 | 35.75211 | -89.05017 | 17115 ft | 364 kts | 221° |
| 2026-05-04 08:53 | 35.73207 | -89.06897 | 16714 ft | 361 kts | 221° |
| 2026-05-04 08:54 | 35.59351 | -89.19840 | 13970 ft | 350 kts | 219° |
| 2026-05-04 08:55 | 35.57413 | -89.21641 | 13959 ft | 350 kts | 219° |
| 2026-05-04 08:55 | 35.55625 | -89.23686 | 13880 ft | 349 kts | 235° |
| 2026-05-04 08:55 | 35.54514 | -89.26292 | 13603 ft | 344 kts | 249° |
| 2026-05-04 08:55 | 35.53668 | -89.28962 | 13304 ft | 329 kts | 250° |
| 2026-05-04 08:57 | 35.49345 | -89.46015 | 10769 ft | 283 kts | 251° |
| 2026-05-04 09:01 | 35.40454 | -89.76226 | 5489 ft | 252 kts | 251° |
| 2026-05-04 09:01 | 35.39862 | -89.78218 | 5143 ft | 250 kts | 251° |
| 2026-05-04 09:01 | 35.39263 | -89.80231 | 4791 ft | 248 kts | 251° |
| 2026-05-04 09:01 | 35.38674 | -89.82215 | 4441 ft | 246 kts | 251° |
| 2026-05-04 09:02 | 35.38097 | -89.84160 | 4093 ft | 243 kts | 251° |
| 2026-05-04 09:02 | 35.37524 | -89.86088 | 3744 ft | 239 kts | 251° |
| 2026-05-04 09:02 | 35.36956 | -89.88004 | 3392 ft | 234 kts | 251° |
| 2026-05-04 09:02 | 35.36414 | -89.89835 | 3063 ft | 228 kts | 251° |
| 2026-05-04 09:03 | 35.35892 | -89.91614 | 2961 ft | 213 kts | 251° |
| 2026-05-04 09:03 | 35.35374 | -89.93274 | 2973 ft | 200 kts | 243° |
| 2026-05-04 09:03 | 35.34399 | -89.94398 | 2981 ft | 188 kts | 212° |
| 2026-05-04 09:03 | 35.33228 | -89.95027 | 2991 ft | 180 kts | 208° |
| 2026-05-04 09:04 | 35.32059 | -89.95597 | 2978 ft | 181 kts | 208° |
| 2026-05-04 09:04 | 35.30878 | -89.96169 | 2968 ft | 180 kts | 208° |
| 2026-05-04 09:04 | 35.29711 | -89.96732 | 2973 ft | 181 kts | 208° |
| 2026-05-04 09:04 | 35.28527 | -89.97304 | 2972 ft | 183 kts | 207° |
| 2026-05-04 09:05 | 35.27214 | -89.97681 | 2965 ft | 203 kts | 191° |
| 2026-05-04 09:05 | 35.25765 | -89.97710 | 2973 ft | 209 kts | 186° |
| 2026-05-04 09:05 | 35.24283 | -89.97694 | 2975 ft | 211 kts | 186° |
| 2026-05-04 09:05 | 35.22839 | -89.97669 | 2991 ft | 199 kts | 186° |
| 2026-05-04 09:06 | 35.21524 | -89.97633 | 3021 ft | 181 kts | 187° |
| 2026-05-04 09:07 | 35.13505 | -89.97454 | 1957 ft | 120 kts | 191° |
| 2026-05-04 09:08 | 35.12658 | -89.97449 | 1808 ft | 122 kts | 191° |
| 2026-05-04 09:08 | 35.11817 | -89.97440 | 1647 ft | 120 kts | 190° |
| 2026-05-04 09:08 | 35.10981 | -89.97423 | 1485 ft | 119 kts | 188° |
| 2026-05-04 09:08 | 35.10152 | -89.97396 | 1312 ft | 119 kts | 185° |
| 2026-05-04 09:09 | 35.09386 | -89.97347 | 1145 ft | 120 kts | 184° |
| 2026-05-04 09:09 | 35.08540 | -89.97312 | 1008 ft | 121 kts | 186° |
| 2026-05-04 09:09 | 35.07703 | -89.97311 | 895 ft | 118 kts | 186° |
| 2026-05-04 09:09 | 35.06889 | -89.97331 | 772 ft | 114 kts | 184° |
| 2026-05-04 09:10 | 35.06082 | -89.97308 | 584 ft | 117 kts | 181° |
| 2026-05-04 09:10 | 35.05280 | -89.97292 | 427 ft | 111 kts | 182° |
| 2026-05-04 09:10 | 35.04518 | -89.97283 | 292 ft | 103 kts | 180° |
| 2026-05-04 09:10 | 35.03921 | -89.97276 | 299 ft | 58 kts | 179° |
| 2026-05-04 09:11 | 35.03616 | -89.97270 | 305 ft | 33 kts | 180° |
| 2026-05-04 09:11 | 35.03423 | -89.97281 | 308 ft | 25 kts | 184° |
| 2026-05-04 09:11 | 35.03246 | -89.97336 | 312 ft | 20 kts | 207° |
| 2026-05-04 09:11 | 35.03177 | -89.97407 | 316 ft | 14 kts | 226° |
| 2026-05-04 09:12 | 35.03160 | -89.97533 | 319 ft | 16 kts | 270° |
| 2026-05-04 09:12 | 35.03160 | -89.97633 | 321 ft | 0 kts | 271° |
| 2026-05-04 09:14 | 35.05106 | -89.97765 | 280 ft | 37 kts | 0° |
| 2026-05-04 09:14 | 35.05140 | -89.97819 | 279 ft | 9 kts | 265° |
| 2026-05-04 09:14 | 35.05116 | -89.97976 | 279 ft | 0 kts | 194° |
| 2026-05-04 09:14 | 35.05116 | -89.97975 | 279 ft | 0 kts | 194° |